Cuneo / Levaldigi Airport LIMZ

Flugplatz Daten

Name: Cuneo / Levaldigi Airport

Ident: LIMZ

Lat: 44,54700089

Long: 7,623219967

Platzhöhe: 1267 ft

IataCode: CUF

City: Cuneo

Homepage: http://www.aeroporto.cuneo.it/

Metar

2021/12/03 23:20
LIMZ 032320Z AUTO 21002KT 9999 NCD M02/M04 Q1014

Taf

2021/12/03 18:21
TAF LIMZ 031700Z 0318/0418 21006KT CAVOK
Gewünschte Webcam nicht vorhanden? Dann fügen Sie eine hinzu. Sie wird dann so schnell wie möglich freigeschaltet
Url: Title: